Time;durP1;ratioP1;P1;durP2;ratioP2;P2;SDS_P1;SDS_P2;PMS_P1;PMS_P2;Temp;Humidity;BMP_temperature;BMP_pressure;BME280_temperature;BME280_humidity;BME280_pressure;Samples;Min_cycle;Max_cycle;Signal;HPM_P1;HPM_P2
2023/03/20 00:07:11;;;;;;;0.90;0.57;;;;;;;;;;20945590;28;20205;-69
2023/03/20 00:17:19;;;;;;;0.20;0.20;;;11.80;99.90;;;;;;20959443;28;20221;-69
2023/03/20 00:27:21;;;;;;;0.20;0.20;;;;;;;;;;20958726;28;20254;-68
2023/03/20 00:37:23;;;;;;;0.70;0.40;;;;;;;;;;20941808;28;20705;-69
2023/03/20 00:47:25;;;;;;;0.47;0.47;;;;;;;;;;20956961;28;20270;-69
2023/03/20 00:57:33;;;;;;;0.67;0.37;;;11.70;99.90;;;;;;20939695;28;20260;-68
2023/03/20 01:07:36;;;;;;;0.43;0.37;;;;;;;;;;20954254;28;20217;-68
2023/03/20 01:17:38;;;;;;;0.30;0.23;;;;;;;;;;20954386;28;20239;-68
2023/03/20 01:27:40;;;;;;;0.43;0.40;;;;;;;;;;20951301;28;20209;-69
2023/03/20 01:37:42;;;;;;;0.80;0.47;;;;;;;;;;20936705;28;20633;-68
2023/03/20 01:47:46;;;;;;;0.30;0.30;;;11.50;99.90;;;;;;20951898;28;20584;-68
2023/03/20 01:57:51;;;;;;;0.70;0.50;;;;;;;;;;20935167;28;20217;-68
2023/03/20 02:08:26;;;;;;;0.57;0.40;;;;;;;;;;20933986;28;20213;-68
2023/03/20 02:18:29;;;;;;;1.07;0.60;;;;;;;;;;20881750;28;20883;-68
2023/03/20 02:28:51;;;;;;;0.90;0.60;;;;;;;;;;20948847;28;20568;-68
2023/03/20 02:39:13;;;;;;;0.80;0.50;;;;;;;;;;20963285;28;20286;-68
2023/03/20 02:49:15;;;;;;;1.47;0.83;;;;;;;;;;20947775;28;20503;-68
2023/03/20 02:59:29;;;;;;;1.10;0.60;;;11.30;99.90;;;;;;20947565;28;20274;-68
2023/03/20 03:09:35;;;;;;;1.00;0.67;;;;;;;;;;20930417;28;20243;-69
2023/03/20 03:19:41;;;;;;;1.60;1.10;;;11.20;99.90;;;;;;20947537;28;20213;-68
2023/03/20 03:29:48;;;;;;;1.37;0.83;;;11.20;99.90;;;;;;20930498;28;20274;-68
2023/03/20 03:39:50;;;;;;;1.23;0.77;;;;;;;;;;20945700;28;20229;-68
2023/03/20 03:50:01;;;;;;;1.23;0.90;;;;;;;;;;20959506;28;20209;-68
2023/03/20 04:00:05;;;;;;;2.17;0.90;;;;;;;;;;20959536;28;20217;-68
2023/03/20 04:10:15;;;;;;;1.47;0.83;;;;;;;;;;20976433;28;20354;-68
2023/03/20 04:20:17;;;;;;;1.60;0.80;;;;;;;;;;20959331;28;20212;-68
2023/03/20 04:30:21;;;;;;;1.10;0.70;;;;;;;;;;20937797;28;20247;-68
2023/03/20 04:40:41;;;;;;;1.50;0.90;;;;;;;;;;20957040;28;20260;-68
2023/03/20 04:50:47;;;;;;;2.13;1.10;;;;;;;;;;20937281;28;20254;-68
2023/03/20 05:00:50;;;;;;;2.07;1.10;;;;;;;;;;20927631;28;20271;-69
2023/03/20 05:10:52;;;;;;;1.70;1.00;;;;;;;;;;20921635;28;20711;-68
2023/03/20 05:21:26;;;;;;;1.83;1.03;;;;;;;;;;20926061;28;20607;-68
2023/03/20 05:31:44;;;;;;;2.10;1.20;;;;;;;;;;20938841;28;20205;-69
2023/03/20 05:42:00;;;;;;;2.00;1.13;;;;;;;;;;20953118;28;20247;-68
2023/03/20 05:52:21;;;;;;;1.70;1.00;;;;;;;;;;20938580;28;20262;-69
2023/03/20 06:02:41;;;;;;;1.77;0.97;;;;;;;;;;20949843;28;20221;-68
2023/03/20 06:13:03;;;;;;;2.23;1.20;;;;;;;;;;20933495;28;20271;-68
2023/03/20 06:23:05;;;;;;;1.87;1.20;;;;;;;;;;20913432;28;20281;-68
2023/03/20 06:33:07;;;;;;;2.00;1.10;;;;;;;;;;20946734;28;20235;-67
2023/03/20 06:43:19;;;;;;;2.60;1.50;;;;;;;;;;20986354;28;20215;-68
2023/03/20 06:53:26;;;;;;;2.50;1.40;;;;;;;;;;21014200;28;20385;-68
2023/03/20 07:03:36;;;;;;;3.23;1.60;;;;;;;;;;21014855;28;20579;-68
2023/03/20 07:13:38;;;;;;;2.23;1.50;;;;;;;;;;21013060;28;20205;-68
2023/03/20 07:23:51;;;;;;;3.07;1.50;;;;;;;;;;21030282;28;20277;-68
2023/03/20 07:33:54;;;;;;;3.77;1.70;;;;;;;;;;21044731;28;20741;-68
2023/03/20 07:43:56;;;;;;;6.13;2.80;;;;;;;;;;21021600;28;20228;-68
2023/03/20 07:54:17;;;;;;;3.57;2.27;;;;;;;;;;21003231;22;20221;-77
2023/03/20 08:04:21;;;;;;;4.90;2.60;;;;;;;;;;20999912;28;20255;-75
2023/03/20 08:14:22;;;;;;;4.53;2.53;;;;;;;;;;20997502;28;20271;-76
2023/03/20 08:24:25;;;;;;;3.93;1.93;;;;;;;;;;20985031;28;20266;-76
2023/03/20 08:34:26;;;;;;;4.80;2.57;;;;;;;;;;21001765;28;20213;-76
2023/03/20 08:44:28;;;;;;;3.40;1.90;;;;;;;;;;20992738;28;20629;-72
2023/03/20 08:54:30;;;;;;;3.77;1.90;;;;;;;;;;20988916;28;20213;-74
2023/03/20 09:04:31;;;;;;;3.60;1.90;;;;;;;;;;20957330;28;20217;-73
2023/03/20 09:14:33;;;;;;;4.83;2.20;;;;;;;;;;20967378;28;20632;-75
2023/03/20 09:24:35;;;;;;;3.47;1.57;;;;;;;;;;20987035;28;20205;-72
2023/03/20 09:34:37;;;;;;;5.33;2.23;;;;;;;;;;20987222;28;20201;-75
2023/03/20 09:44:44;;;;;;;3.10;1.63;;;;;;;;;;20986146;28;20205;-75
2023/03/20 09:54:48;;;;;;;3.30;2.10;;;;;;;;;;20984054;28;20354;-75
2023/03/20 10:04:54;;;;;;;3.23;1.90;;;;;;;;;;20952781;28;20210;-76
2023/03/20 10:15:07;;;;;;;3.57;1.87;;;12.10;99.90;;;;;;20902447;28;20244;-74
2023/03/20 10:25:12;;;;;;;2.23;1.30;;;;;;;;;;20902486;28;20567;-77
2023/03/20 10:35:45;;;;;;;2.13;1.60;;;14.30;99.90;;;;;;20934372;28;20255;-76
2023/03/20 10:45:52;;;;;;;2.87;1.73;;;13.80;99.90;;;;;;20981625;28;20211;-76
2023/03/20 10:55:57;;;;;;;2.63;1.47;;;13.20;99.90;;;;;;20982501;28;20297;-75
2023/03/20 11:06:21;;;;;;;2.00;1.10;;;13.10;99.90;;;;;;20963462;28;20235;-75
2023/03/20 11:16:23;;;;;;;2.53;1.10;;;;;;;;;;20963641;28;20221;-75
2023/03/20 11:26:37;;;;;;;1.73;1.00;;;;;;;;;;20963426;28;20221;-75
2023/03/20 11:36:40;;;;;;;1.57;1.03;;;;;;;;;;20962662;28;20225;-76
2023/03/20 11:46:41;;;;;;;1.40;0.93;;;;;;;;;;20980341;28;20217;-77
2023/03/20 11:56:54;;;;;;;2.33;1.00;;;;;;;;;;20973910;28;20278;-77
2023/03/20 12:06:57;;;;;;;3.93;0.93;;;;;;;;;;20992400;28;20691;-77
2023/03/20 12:17:43;;;;;;;1.60;1.00;;;13.80;99.90;;;;;;20983587;28;20644;-76
2023/03/20 12:27:55;;;;;;;1.73;1.07;;;13.90;99.90;;;;;;20981009;28;20632;-76
2023/03/20 12:37:57;;;;;;;1.90;0.80;;;14.00;99.90;;;;;;21000937;28;20217;-77
2023/03/20 12:47:59;;;;;;;1.23;0.70;;;;;;;;;;20999868;28;20581;-77
2023/03/20 12:58:21;;;;;;;0.57;0.50;;;;;;;;;;20998756;28;20220;-77
2023/03/20 13:08:22;;;;;;;1.33;0.60;;;;;;;;;;20997623;28;20556;-76
2023/03/20 13:18:40;;;;;;;1.83;0.80;;;;;;;;;;20999799;28;20217;-77
2023/03/20 13:29:20;;;;;;;1.17;0.43;;;14.90;99.90;;;;;;20993202;28;20213;-77
2023/03/20 13:39:28;;;;;;;1.67;0.57;;;;;;;;;;20991193;28;20217;-77
2023/03/20 13:49:43;;;;;;;2.33;0.53;;;;;;;;;;20955740;28;20247;-75
2023/03/20 13:59:54;;;;;;;7.43;0.70;;;;;;;;;;20928474;23;20267;-66
2023/03/20 14:09:56;;;;;;;2.13;0.73;;;;;;;;;;20876752;28;20278;-67
2023/03/20 14:20:10;;;;;;;0.57;0.40;;;;;;;;;;20862739;28;20287;-67
2023/03/20 14:30:45;;;;;;;3.40;0.80;;;;;;;;;;20875803;28;20247;-67
2023/03/20 14:40:59;;;;;;;0.93;0.57;;;;;;;;;;20803023;28;20704;-66
2023/03/20 14:51:07;;;;;;;2.07;0.63;;;;;;;;;;20844405;28;20676;-67
2023/03/20 15:01:28;;;;;;;0.33;0.30;;;;;;;;;;20795363;28;20257;-67
2023/03/20 15:11:30;;;;;;;0.57;0.40;;;;;;;;;;20780559;28;20284;-67
2023/03/20 15:21:40;;;;;;;1.00;0.40;;;;;;;;;;20812560;28;20295;-66
2023/03/20 15:31:42;;;;;;;1.13;0.60;;;;;;;;;;20857032;28;20214;-67
2023/03/20 15:41:46;;;;;;;0.90;0.57;;;;;;;;;;20889543;28;20287;-67
2023/03/20 15:51:48;;;;;;;0.83;0.40;;;;;;;;;;20896338;28;20578;-67
2023/03/20 16:01:51;;;;;;;0.93;0.47;;;;;;;;;;20854342;28;20221;-66
2023/03/20 16:12:01;;;;;;;1.00;0.60;;;13.80;99.90;;;;;;20849591;28;20858;-67
2023/03/20 16:22:17;;;;;;;1.37;0.73;;;;;;;;;;20870080;28;20660;-67
2023/03/20 16:32:27;;;;;;;0.80;0.60;;;;;;;;;;20870455;28;20259;-66
2023/03/20 16:42:29;;;;;;;2.50;0.80;;;;;;;;;;20869462;28;20225;-69
2023/03/20 16:52:35;;;;;;;1.70;0.57;;;;;;;;;;20878173;28;20213;-69
2023/03/20 17:02:39;;;;;;;1.70;0.50;;;13.50;99.90;;;;;;20848536;28;20218;-69
2023/03/20 17:12:43;;;;;;;1.27;0.60;;;13.50;99.90;;;;;;20832838;28;20222;-69
2023/03/20 17:22:45;;;;;;;2.40;0.50;;;;;;;;;;20853310;28;20210;-66
2023/03/20 17:32:47;;;;;;;0.83;0.47;;;;;;;;;;20847657;28;20226;-66
2023/03/20 17:42:49;;;;;;;0.47;0.47;;;;;;;;;;20852204;28;20283;-66
2023/03/20 17:52:52;;;;;;;1.33;0.53;;;;;;;;;;20842482;28;20275;-67
2023/03/20 18:02:54;;;;;;;0.80;0.50;;;;;;;;;;20838715;28;20288;-70
2023/03/20 18:12:56;;;;;;;0.40;0.40;;;;;;;;;;20843452;28;20226;-69
2023/03/20 18:22:58;;;;;;;1.07;0.53;;;;;;;;;;20860825;28;20217;-69
2023/03/20 18:33:00;;;;;;;2.60;1.30;;;;;;;;;;20854711;28;20267;-70
2023/03/20 18:43:02;;;;;;;1.43;0.70;;;;;;;;;;20868475;28;20283;-70
2023/03/20 18:53:05;;;;;;;0.70;0.40;;;13.20;99.90;;;;;;20857848;28;20552;-70
2023/03/20 19:03:09;;;;;;;0.83;0.43;;;13.30;99.90;;;;;;20841620;28;20704;-67
2023/03/20 19:13:16;;;;;;;1.70;0.83;;;;;;;;;;20867434;28;20206;-67
2023/03/20 19:23:19;;;;;;;0.97;0.77;;;13.00;99.90;;;;;;20860326;28;20229;-70
2023/03/20 19:33:22;;;;;;;2.63;0.80;;;12.90;99.90;;;;;;20887632;28;20704;-70
2023/03/20 19:43:24;;;;;;;2.60;1.30;;;;;;;;;;20862722;28;20214;-70
2023/03/20 19:53:28;;;;;;;1.30;0.80;;;12.80;99.90;;;;;;20877348;28;20206;-69
2023/03/20 20:03:30;;;;;;;1.70;0.70;;;;;;;;;;20876005;28;20275;-70
2023/03/20 20:13:35;;;;;;;2.87;1.83;;;;;;;;;;20852336;28;20260;-70
2023/03/20 20:23:37;;;;;;;1.03;0.60;;;;;;;;;;20892594;23;20648;-71
2023/03/20 20:33:39;;;;;;;0.80;0.50;;;;;;;;;;20840362;28;20237;-73
2023/03/20 20:43:41;;;;;;;1.07;0.90;;;;;;;;;;20821380;28;20242;-73
2023/03/20 20:53:43;;;;;;;1.97;0.80;;;;;;;;;;20820899;28;20202;-71
2023/03/20 21:03:45;;;;;;;1.83;1.00;;;;;;;;;;20822686;28;20481;-74
2023/03/20 21:13:46;;;;;;;1.07;0.70;;;;;;;;;;20822622;28;20257;-72
2023/03/20 21:23:49;;;;;;;1.93;1.10;;;;;;;;;;20819863;28;20226;-74
2023/03/20 21:33:52;;;;;;;1.20;0.90;;;12.50;99.90;;;;;;20814887;28;20226;-75
2023/03/20 21:43:55;;;;;;;1.30;1.00;;;;;;;;;;20823962;28;20585;-74
2023/03/20 21:53:56;;;;;;;2.83;0.87;;;;;;;;;;20823332;28;20767;-73
2023/03/20 22:03:58;;;;;;;1.50;0.93;;;;;;;;;;20820843;28;20303;-73
2023/03/20 22:14:00;;;;;;;19.57;11.17;;;;;;;;;;20820147;28;20261;-73
2023/03/20 22:24:01;;;;;;;4.53;2.07;;;;;;;;;;20821682;28;20214;-73
2023/03/20 22:34:03;;;;;;;2.83;1.07;;;;;;;;;;20819365;28;20210;-72
2023/03/20 22:44:05;;;;;;;2.63;1.40;;;12.20;99.90;;;;;;20820090;28;20218;-73
2023/03/20 22:54:07;;;;;;;2.60;1.37;;;;;;;;;;20818252;28;20210;-73
2023/03/20 23:04:09;;;;;;;2.63;1.57;;;;;;;;;;20819954;28;20227;-73
2023/03/20 23:14:10;;;;;;;1.90;1.17;;;;;;;;;;20819776;28;20202;-73
2023/03/20 23:24:12;;;;;;;1.13;0.60;;;;;;;;;;20816069;28;20272;-73
2023/03/20 23:34:14;;;;;;;3.50;1.53;;;;;;;;;;20815613;28;20226;-73
2023/03/20 23:44:16;;;;;;;5.03;2.33;;;;;;;;;;20817931;28;20260;-74
2023/03/20 23:54:18;;;;;;;2.20;0.80;;;;;;;;;;20816325;28;20245;-74
